createdAt,value
2022-12-17T00:00:44.535Z,27.90
2022-12-17T00:02:07.280Z,29.45
2022-12-17T00:03:30.134Z,31.95
2022-12-17T00:04:51.214Z,27.90
2022-12-17T00:06:12.992Z,29.80
2022-12-17T00:07:36.644Z,31.45
2022-12-17T00:08:57.850Z,30.73
2022-12-17T00:10:18.643Z,29.38
2022-12-17T00:11:41.944Z,29.02
2022-12-17T00:13:05.421Z,31.20
2022-12-17T00:14:26.227Z,31.10
2022-12-17T00:15:47.111Z,31.27
2022-12-17T00:17:07.808Z,30.10
2022-12-17T00:18:48.879Z,30.23
2022-12-17T00:20:09.710Z,28.97
2022-12-17T00:21:31.117Z,28.15
2022-12-17T00:22:51.857Z,29.13
2022-12-17T00:24:16.470Z,29.13
2022-12-17T00:25:44.613Z,32.65
2022-12-17T00:27:05.241Z,28.83
2022-12-17T00:28:30.165Z,28.00
2022-12-17T00:29:50.801Z,27.45
2022-12-17T00:31:12.681Z,30.67
2022-12-17T00:32:33.627Z,30.75
2022-12-17T00:33:54.849Z,29.03
2022-12-17T00:35:19.553Z,30.75
2022-12-17T00:36:40.708Z,30.10
2022-12-17T00:38:07.181Z,29.43
2022-12-17T00:39:30.873Z,29.95
2022-12-17T00:40:51.909Z,28.75
2022-12-17T00:42:15.689Z,29.48
2022-12-17T00:43:40.238Z,30.17
2022-12-17T00:45:10.054Z,30.57
2022-12-17T00:46:31.034Z,32.13
2022-12-17T00:47:53.093Z,32.92
2022-12-17T00:49:14.746Z,32.38
2022-12-17T00:50:35.921Z,31.25
2022-12-17T00:51:57.110Z,28.47
2022-12-17T00:53:17.817Z,31.77
2022-12-17T00:54:38.760Z,31.85
2022-12-17T00:55:59.336Z,28.53
2022-12-17T00:57:28.442Z,33.50
2022-12-17T00:58:49.170Z,29.65
2022-12-17T01:00:10.922Z,32.47
2022-12-17T01:01:33.367Z,30.98
2022-12-17T01:02:55.064Z,32.00
2022-12-17T01:04:17.313Z,31.20
2022-12-17T01:05:41.242Z,33.42
2022-12-17T01:07:02.636Z,31.13
2022-12-17T01:08:28.564Z,33.73
2022-12-17T01:09:49.144Z,30.90
2022-12-17T01:11:09.731Z,31.17
2022-12-17T01:12:34.152Z,30.70
2022-12-17T01:13:55.036Z,31.57
2022-12-17T01:15:17.396Z,29.60
2022-12-17T01:16:38.325Z,29.52
2022-12-17T01:17:58.989Z,31.87
2022-12-17T01:19:19.882Z,30.70
2022-12-17T01:20:40.721Z,32.15
2022-12-17T01:22:04.247Z,30.07
2022-12-17T01:23:29.114Z,32.72
2022-12-17T01:24:50.971Z,34.45
2022-12-17T01:26:14.638Z,30.90
2022-12-17T01:27:36.131Z,32.50
2022-12-17T01:28:59.134Z,34.63
2022-12-17T01:30:23.542Z,32.72
2022-12-17T01:31:44.819Z,32.22
2022-12-17T01:33:05.813Z,31.52
2022-12-17T01:34:26.813Z,37.83
2022-12-17T01:35:47.493Z,31.88
2022-12-17T01:37:08.346Z,30.38
2022-12-17T01:38:31.689Z,34.58
2022-12-17T01:39:52.523Z,30.20
2022-12-17T01:41:15.564Z,30.83
2022-12-17T01:42:36.567Z,30.90
2022-12-17T01:43:57.917Z,33.50
2022-12-17T01:45:19.049Z,30.80
2022-12-17T01:46:48.839Z,30.23
2022-12-17T01:48:14.806Z,32.80
2022-12-17T01:49:40.322Z,31.70
2022-12-17T01:51:05.536Z,32.03
2022-12-17T01:52:44.318Z,30.73
2022-12-17T01:54:11.962Z,33.87
2022-12-17T01:55:36.142Z,31.92
2022-12-17T01:57:01.203Z,32.47
2022-12-17T01:58:22.855Z,31.63
2022-12-17T02:00:14.707Z,32.80
2022-12-17T02:01:36.785Z,33.63
2022-12-17T02:03:01.368Z,30.30
2022-12-17T02:04:27.153Z,31.90
2022-12-17T02:06:12.747Z,32.22
2022-12-17T02:08:10.091Z,31.65
2022-12-17T02:09:58.009Z,29.13
2022-12-17T02:11:24.914Z,32.43
2022-12-17T02:13:20.588Z,31.92
2022-12-17T02:15:00.209Z,28.88
2022-12-17T02:16:40.485Z,30.63
2022-12-17T02:18:08.402Z,31.33
2022-12-17T02:20:07.721Z,33.83
2022-12-17T02:21:32.421Z,31.87
2022-12-17T02:23:33.269Z,31.08
2022-12-17T02:25:22.096Z,30.40
2022-12-17T02:27:05.470Z,31.73
2022-12-17T02:28:26.827Z,32.77
2022-12-17T02:29:56.566Z,34.65
2022-12-17T02:31:17.578Z,36.05
2022-12-17T02:32:39.359Z,31.08
2022-12-17T02:34:01.136Z,36.93
2022-12-17T02:35:33.250Z,32.97
2022-12-17T02:37:01.995Z,33.17
2022-12-17T02:38:41.115Z,33.20
2022-12-17T02:40:02.192Z,31.80
2022-12-17T02:41:26.768Z,32.30
2022-12-17T02:42:53.061Z,32.15
2022-12-17T02:44:19.103Z,33.70
2022-12-17T02:45:40.658Z,32.08
2022-12-17T02:47:02.257Z,32.63
2022-12-17T02:48:26.000Z,30.63
2022-12-17T02:49:49.100Z,32.10
2022-12-17T02:51:10.309Z,33.45
2022-12-17T02:52:35.056Z,32.60
2022-12-17T02:54:08.201Z,32.50
2022-12-17T02:55:32.424Z,32.33
2022-12-17T02:56:53.536Z,34.30
2022-12-17T02:58:16.077Z,38.10
2022-12-17T02:59:37.058Z,34.00
2022-12-17T03:01:05.293Z,33.20
2022-12-17T03:02:26.561Z,31.58
2022-12-17T03:03:50.278Z,33.17
2022-12-17T03:05:42.726Z,33.83
2022-12-17T03:06:53.018Z,35.53
2022-12-17T03:08:15.132Z,34.88
2022-12-17T03:09:36.118Z,34.20
2022-12-17T03:10:57.098Z,31.80
2022-12-17T03:12:17.997Z,33.38
2022-12-17T03:13:47.206Z,32.50
2022-12-17T03:15:07.997Z,31.70
2022-12-17T03:16:37.747Z,34.75
2022-12-17T03:17:59.153Z,33.70
2022-12-17T03:19:21.086Z,36.22
2022-12-17T03:20:41.629Z,34.15
2022-12-17T03:22:02.896Z,33.67
2022-12-17T03:23:45.106Z,32.77
2022-12-17T03:25:08.764Z,32.00
2022-12-17T03:26:31.089Z,34.85
2022-12-17T03:27:51.764Z,32.80
2022-12-17T03:29:12.438Z,34.35
2022-12-17T03:30:36.201Z,31.10
2022-12-17T03:31:58.250Z,33.67
2022-12-17T03:33:19.191Z,33.20
2022-12-17T03:34:42.902Z,34.55
2022-12-17T03:36:03.778Z,32.03
2022-12-17T03:37:25.210Z,33.45
2022-12-17T03:38:45.813Z,35.57
2022-12-17T03:40:06.304Z,33.57
2022-12-17T03:41:37.409Z,33.47
2022-12-17T03:42:58.129Z,29.97
2022-12-17T03:44:21.584Z,32.35
2022-12-17T03:45:45.471Z,34.53
2022-12-17T03:47:15.591Z,34.73
2022-12-17T03:48:36.182Z,33.80
2022-12-17T03:49:56.740Z,33.33
2022-12-17T03:51:20.489Z,34.58
2022-12-17T03:52:41.120Z,32.50
2022-12-17T03:54:02.056Z,32.23
2022-12-17T03:55:23.150Z,33.50
2022-12-17T03:56:49.068Z,32.45
2022-12-17T03:58:10.085Z,34.53
2022-12-17T03:59:31.447Z,33.50
2022-12-17T04:00:52.048Z,33.03
2022-12-17T04:02:16.057Z,29.92
2022-12-17T04:03:40.666Z,34.13
2022-12-17T04:05:01.845Z,34.30
2022-12-17T04:06:23.178Z,33.17
2022-12-17T04:07:44.396Z,34.85
2022-12-17T04:09:05.384Z,32.43
2022-12-17T04:10:26.622Z,33.78
2022-12-17T04:11:50.665Z,32.80
2022-12-17T04:13:16.897Z,33.10
2022-12-17T04:14:37.844Z,30.85
2022-12-17T04:15:58.743Z,33.40
2022-12-17T04:17:19.381Z,33.90
2022-12-17T04:18:40.475Z,30.50
2022-12-17T04:20:01.457Z,32.03
2022-12-17T04:21:23.121Z,32.70
2022-12-17T04:22:43.843Z,32.38
2022-12-17T04:24:04.452Z,32.33
2022-12-17T04:25:25.470Z,33.70
2022-12-17T04:26:48.056Z,31.95
2022-12-17T04:28:08.697Z,31.63
2022-12-17T04:29:30.097Z,34.80
2022-12-17T04:30:50.737Z,33.33
2022-12-17T04:32:11.678Z,33.57
2022-12-17T04:33:32.532Z,32.45
2022-12-17T04:34:53.585Z,35.20
2022-12-17T04:36:14.364Z,33.33
2022-12-17T04:37:34.915Z,30.87
2022-12-17T04:38:55.732Z,32.90
2022-12-17T04:40:16.373Z,32.75
2022-12-17T04:41:40.413Z,33.95
2022-12-17T04:43:00.945Z,32.07
2022-12-17T04:44:22.004Z,33.45
2022-12-17T04:45:45.056Z,37.28
2022-12-17T04:47:08.708Z,34.53
2022-12-17T04:48:29.399Z,30.90
2022-12-17T04:49:52.967Z,34.15
2022-12-17T04:51:15.082Z,31.20
2022-12-17T04:52:38.007Z,34.37
2022-12-17T04:54:04.314Z,37.17
2022-12-17T04:55:31.140Z,32.40
2022-12-17T04:56:51.811Z,32.13
2022-12-17T04:58:12.442Z,32.50
2022-12-17T04:59:33.043Z,35.10
2022-12-17T05:00:53.726Z,34.67
2022-12-17T05:02:14.899Z,31.60
2022-12-17T05:03:39.289Z,37.65
2022-12-17T05:05:00.492Z,35.93
2022-12-17T05:06:22.301Z,36.60
2022-12-17T05:07:42.991Z,34.90
2022-12-17T05:09:03.869Z,34.60
2022-12-17T05:10:25.468Z,32.80
2022-12-17T05:11:46.293Z,33.53
2022-12-17T05:13:06.947Z,35.10
2022-12-17T05:14:28.166Z,31.60
2022-12-17T05:16:08.727Z,33.60
2022-12-17T05:17:32.389Z,35.97
2022-12-17T05:18:53.255Z,33.20
2022-12-17T05:20:13.977Z,32.03
2022-12-17T05:21:34.755Z,34.00
2022-12-17T05:22:55.639Z,33.93
2022-12-17T05:24:16.277Z,33.43
2022-12-17T05:25:37.249Z,33.47
2022-12-17T05:27:00.345Z,32.47
2022-12-17T05:28:20.913Z,37.13
2022-12-17T05:29:41.997Z,33.17
2022-12-17T05:31:11.106Z,36.87
2022-12-17T05:32:31.798Z,37.00
2022-12-17T05:33:52.523Z,38.73
2022-12-17T05:35:13.183Z,36.15
2022-12-17T05:36:36.895Z,35.70
2022-12-17T05:38:03.486Z,34.83
2022-12-17T05:39:24.193Z,38.53
2022-12-17T05:40:50.976Z,34.20
2022-12-17T05:42:11.735Z,31.47
2022-12-17T05:43:35.745Z,37.60
2022-12-17T05:44:56.741Z,33.50
2022-12-17T05:46:21.431Z,35.50
2022-12-17T05:47:42.742Z,34.20
2022-12-17T05:49:03.524Z,36.53
2022-12-17T05:50:24.747Z,36.33
2022-12-17T05:51:45.876Z,33.17
2022-12-17T05:53:06.414Z,33.30
2022-12-17T05:54:27.516Z,35.30
2022-12-17T05:55:48.329Z,34.10
2022-12-17T05:57:09.056Z,34.23
2022-12-17T05:58:34.052Z,32.50
2022-12-17T06:00:03.343Z,36.50
2022-12-17T06:01:33.133Z,32.53
2022-12-17T06:02:53.886Z,34.47
2022-12-17T06:04:14.713Z,34.37
2022-12-17T06:05:35.813Z,32.63
2022-12-17T06:06:56.563Z,33.90
2022-12-17T06:08:25.516Z,34.83
2022-12-17T06:09:46.147Z,34.73
2022-12-17T06:11:06.922Z,37.10
2022-12-17T06:12:27.865Z,34.83
2022-12-17T06:13:48.879Z,33.33
2022-12-17T06:15:11.078Z,29.93
2022-12-17T06:16:31.706Z,35.13
2022-12-17T06:17:52.285Z,35.17
2022-12-17T06:19:12.917Z,33.87
2022-12-17T06:20:34.764Z,34.20
2022-12-17T06:21:55.911Z,33.60
2022-12-17T06:23:19.952Z,35.90
2022-12-17T06:24:45.751Z,35.63
2022-12-17T06:26:07.205Z,33.40
2022-12-17T06:27:32.240Z,34.07
2022-12-17T06:28:52.838Z,37.47
2022-12-17T06:30:18.467Z,36.37
2022-12-17T06:31:41.131Z,39.20
2022-12-17T06:33:12.855Z,36.47
2022-12-17T06:34:36.678Z,36.83
2022-12-17T06:36:05.169Z,33.60
2022-12-17T06:37:25.939Z,34.43
2022-12-17T06:38:46.553Z,37.00
2022-12-17T06:40:10.396Z,34.57
2022-12-17T06:41:31.171Z,33.50
2022-12-17T06:42:53.094Z,35.60
2022-12-17T06:44:14.084Z,37.47
2022-12-17T06:45:35.269Z,35.53
2022-12-17T06:46:55.881Z,37.33
2022-12-17T06:48:23.708Z,36.27
2022-12-17T06:49:44.403Z,37.60
2022-12-17T06:51:05.429Z,33.70
2022-12-17T06:52:28.653Z,34.97
2022-12-17T06:53:49.652Z,39.50
2022-12-17T06:55:10.438Z,36.50
2022-12-17T06:56:34.139Z,36.80
2022-12-17T06:57:55.026Z,34.70
2022-12-17T06:59:24.300Z,35.70
2022-12-17T07:00:44.990Z,36.30
2022-12-17T07:02:05.794Z,34.33
2022-12-17T07:03:30.266Z,37.73
2022-12-17T07:04:51.271Z,35.30
2022-12-17T07:06:12.953Z,35.27
2022-12-17T07:07:33.870Z,35.63
2022-12-17T07:08:54.409Z,37.93
2022-12-17T07:10:14.981Z,36.30
2022-12-17T07:11:35.816Z,35.93
2022-12-17T07:12:57.033Z,42.50
2022-12-17T07:14:17.900Z,37.77
2022-12-17T07:15:38.451Z,39.70
2022-12-17T07:16:59.294Z,35.30
2022-12-17T07:18:22.689Z,37.73
2022-12-17T07:19:43.661Z,38.03
2022-12-17T07:21:05.123Z,36.47
2022-12-17T07:22:26.049Z,37.67
2022-12-17T07:23:47.178Z,38.07
2022-12-17T07:25:08.019Z,41.67
2022-12-17T07:26:28.744Z,39.70
2022-12-17T07:27:49.525Z,34.67
2022-12-17T07:29:10.394Z,37.47
2022-12-17T07:30:31.474Z,38.37
2022-12-17T07:31:55.358Z,37.47
2022-12-17T07:33:24.807Z,38.03
2022-12-17T07:34:46.461Z,42.00
2022-12-17T07:36:07.472Z,39.87
2022-12-17T07:37:30.680Z,42.87
2022-12-17T07:38:52.085Z,42.53
2022-12-17T07:40:12.936Z,41.20
2022-12-17T07:41:33.568Z,39.37
2022-12-17T07:42:57.883Z,43.30
2022-12-17T07:44:18.744Z,44.57
2022-12-17T07:45:39.799Z,41.83
2022-12-17T07:47:03.992Z,46.67
2022-12-17T07:48:24.792Z,45.90
2022-12-17T07:49:47.556Z,42.67
2022-12-17T07:51:09.256Z,48.97
2022-12-17T07:52:32.240Z,48.30
2022-12-17T07:53:56.412Z,46.77
2022-12-17T07:55:18.471Z,50.27
2022-12-17T07:56:40.109Z,50.63
2022-12-17T07:58:04.064Z,50.63
2022-12-17T07:59:25.363Z,48.40
2022-12-17T08:00:49.381Z,54.37
2022-12-17T08:02:10.721Z,52.20
2022-12-17T08:03:35.288Z,51.57
2022-12-17T08:04:56.366Z,53.13
2022-12-17T08:06:17.966Z,56.20
2022-12-17T08:07:38.736Z,49.77
2022-12-17T08:09:00.054Z,58.33
2022-12-17T08:10:23.759Z,55.57
2022-12-17T08:11:44.353Z,56.93
2022-12-17T08:13:20.368Z,56.40
2022-12-17T08:14:41.077Z,53.87
2022-12-17T08:16:01.935Z,57.63
2022-12-17T08:17:23.087Z,58.77
2022-12-17T08:18:43.978Z,58.00
2022-12-17T08:20:04.804Z,53.30
2022-12-17T08:21:25.853Z,59.20
2022-12-17T08:22:46.706Z,53.83
2022-12-17T08:24:07.523Z,56.17
2022-12-17T08:25:28.635Z,60.67
2022-12-17T08:26:52.348Z,56.67
2022-12-17T08:28:49.017Z,54.77
2022-12-17T08:30:01.957Z,57.00
2022-12-17T08:31:23.116Z,51.60
2022-12-17T08:32:44.546Z,54.27
2022-12-17T08:34:08.284Z,56.50
2022-12-17T08:35:43.033Z,49.37
2022-12-17T08:37:04.151Z,50.10
2022-12-17T08:38:39.490Z,53.03
2022-12-17T08:40:00.376Z,52.83
2022-12-17T08:41:21.217Z,46.60
2022-12-17T08:42:44.802Z,50.17
2022-12-17T08:44:05.585Z,50.73
2022-12-17T08:45:40.379Z,48.90
2022-12-17T08:47:01.148Z,48.20
2022-12-17T08:48:24.248Z,51.80
2022-12-17T08:49:44.889Z,53.97
2022-12-17T08:51:05.795Z,50.17
2022-12-17T08:52:27.040Z,54.00
2022-12-17T08:53:50.687Z,46.67
2022-12-17T08:55:11.626Z,51.00
2022-12-17T08:56:32.236Z,48.97
2022-12-17T08:57:59.138Z,51.40
2022-12-17T08:59:20.848Z,48.80
2022-12-17T09:00:41.600Z,52.87
2022-12-17T09:02:02.695Z,52.40
2022-12-17T09:03:23.740Z,49.00
2022-12-17T09:04:44.752Z,50.40
2022-12-17T09:06:09.074Z,52.67
2022-12-17T09:07:30.305Z,53.43
2022-12-17T09:08:51.512Z,55.03
2022-12-17T09:10:12.244Z,52.50
2022-12-17T09:11:33.352Z,55.80
2022-12-17T09:12:53.961Z,60.27
2022-12-17T09:14:15.037Z,56.33
2022-12-17T09:15:35.664Z,53.80
2022-12-17T09:17:05.382Z,55.40
2022-12-17T09:18:26.255Z,57.60
2022-12-17T09:19:47.391Z,61.97
2022-12-17T09:21:14.576Z,57.50
2022-12-17T09:22:37.102Z,53.83
2022-12-17T09:23:58.267Z,56.80
2022-12-17T09:25:19.188Z,61.70
2022-12-17T09:26:40.117Z,59.00
2022-12-17T09:28:03.943Z,63.23
2022-12-17T09:29:24.565Z,60.63
2022-12-17T09:30:45.199Z,63.73
2022-12-17T09:32:08.409Z,57.47
2022-12-17T09:33:36.965Z,60.00
2022-12-17T09:35:15.276Z,64.23
2022-12-17T09:36:36.524Z,63.23
2022-12-17T09:37:59.045Z,60.03
2022-12-17T09:39:22.911Z,59.40
2022-12-17T09:40:45.682Z,62.30
2022-12-17T09:42:20.438Z,55.47
2022-12-17T09:43:47.955Z,53.63
2022-12-17T09:45:27.007Z,56.87
2022-12-17T09:47:10.954Z,52.90
2022-12-17T09:49:04.333Z,54.03
2022-12-17T09:50:31.025Z,55.23
2022-12-17T09:51:53.128Z,49.37
2022-12-17T09:53:16.609Z,48.07
2022-12-17T09:55:18.052Z,46.30
2022-12-17T09:56:42.264Z,41.23
2022-12-17T09:58:05.792Z,36.83
2022-12-17T09:59:57.042Z,35.77
2022-12-17T10:01:17.788Z,39.67
2022-12-17T10:02:39.768Z,41.53
2022-12-17T10:04:04.620Z,38.03
2022-12-17T10:05:37.195Z,41.37
2022-12-17T10:07:00.368Z,40.67
2022-12-17T10:08:24.667Z,44.57
2022-12-17T10:09:47.365Z,37.70
2022-12-17T10:11:11.926Z,45.30
2022-12-17T10:12:35.662Z,43.63
2022-12-17T10:13:56.329Z,45.23
2022-12-17T10:15:17.337Z,42.97
2022-12-17T10:16:56.872Z,44.90
2022-12-17T10:18:29.451Z,45.47
2022-12-17T10:19:58.065Z,49.83
2022-12-17T10:21:25.678Z,42.03
2022-12-17T10:22:46.737Z,44.83
2022-12-17T10:24:07.665Z,44.37
2022-12-17T10:25:35.541Z,48.13
2022-12-17T10:27:07.141Z,47.73
2022-12-17T10:28:38.832Z,45.07
2022-12-17T10:30:02.915Z,48.47
2022-12-17T10:31:39.363Z,50.57
2022-12-17T10:33:02.850Z,49.20
2022-12-17T10:34:41.778Z,47.63
2022-12-17T10:36:02.380Z,51.33
2022-12-17T10:37:41.823Z,50.53
2022-12-17T10:39:02.524Z,48.00
2022-12-17T10:40:36.145Z,53.00
2022-12-17T10:42:00.509Z,51.23
2022-12-17T10:43:21.394Z,51.30
2022-12-17T10:44:49.646Z,51.00
2022-12-17T10:46:16.817Z,50.63
2022-12-17T10:47:38.629Z,52.40
2022-12-17T10:48:59.361Z,59.17
2022-12-17T10:50:32.979Z,51.53
2022-12-17T10:51:55.714Z,52.17
2022-12-17T10:53:16.948Z,55.00
2022-12-17T10:54:53.608Z,58.63
2022-12-17T10:56:16.104Z,62.20
2022-12-17T10:57:49.319Z,53.13
2022-12-17T10:59:12.982Z,63.70
2022-12-17T11:00:47.335Z,52.90
2022-12-17T11:02:19.592Z,59.87
2022-12-17T11:04:00.700Z,59.47
2022-12-17T11:05:22.694Z,61.03
2022-12-17T11:06:50.062Z,59.17
2022-12-17T11:08:10.951Z,60.67
2022-12-17T11:09:48.592Z,57.20
2022-12-17T11:11:09.078Z,57.80
2022-12-17T11:12:31.997Z,60.60
2022-12-17T11:14:01.067Z,61.10
2022-12-17T11:15:35.070Z,63.20
2022-12-17T11:17:05.369Z,60.17
2022-12-17T11:18:31.176Z,58.47
2022-12-17T11:20:05.050Z,58.40
2022-12-17T11:21:50.145Z,58.13
2022-12-17T11:23:17.226Z,62.13
2022-12-17T11:24:50.030Z,64.20
2022-12-17T11:26:29.004Z,62.47
2022-12-17T11:28:00.157Z,64.23
2022-12-17T11:29:24.621Z,67.50
2022-12-17T11:30:47.457Z,63.80
2022-12-17T11:32:17.337Z,64.80
2022-12-17T11:33:47.729Z,67.97
2022-12-17T11:35:22.503Z,60.70
2022-12-17T11:36:52.269Z,60.77
2022-12-17T11:38:41.777Z,54.67
2022-12-17T11:40:18.146Z,56.37
2022-12-17T11:41:48.954Z,52.30
2022-12-17T11:43:14.528Z,51.97
2022-12-17T11:44:45.054Z,51.03
2022-12-17T11:46:34.933Z,48.90
2022-12-17T11:48:14.874Z,49.27
2022-12-17T11:49:55.422Z,49.13
2022-12-17T11:51:42.345Z,46.83
2022-12-17T11:53:16.238Z,48.07
2022-12-17T11:54:47.757Z,46.20
2022-12-17T11:56:38.035Z,45.97
2022-12-17T11:58:09.127Z,46.33
2022-12-17T11:59:42.119Z,47.10
2022-12-17T12:01:13.274Z,44.70
2022-12-17T12:03:08.769Z,40.13
2022-12-17T12:04:41.819Z,45.07
2022-12-17T12:06:18.582Z,42.60
2022-12-17T12:07:46.024Z,48.10
2022-12-17T12:09:34.858Z,41.77
2022-12-17T12:11:14.882Z,44.10
2022-12-17T12:12:41.781Z,45.47
2022-12-17T12:14:05.536Z,42.90
2022-12-17T12:15:41.125Z,41.30
2022-12-17T12:17:19.716Z,45.67
2022-12-17T12:19:03.669Z,41.50
2022-12-17T12:20:58.855Z,39.57
2022-12-17T12:22:56.778Z,38.27
2022-12-17T12:24:39.214Z,43.50
2022-12-17T12:26:26.708Z,38.37
2022-12-17T12:28:26.381Z,37.60
2022-12-17T12:30:34.519Z,38.63
2022-12-17T12:32:03.191Z,37.13
2022-12-17T12:33:50.898Z,39.03
2022-12-17T12:35:16.551Z,35.37
2022-12-17T12:36:41.104Z,38.20
2022-12-17T12:38:02.449Z,36.50
2022-12-17T12:39:28.564Z,36.97
2022-12-17T12:41:12.077Z,33.17
2022-12-17T12:42:51.305Z,35.87
2022-12-17T12:44:30.677Z,34.80
2022-12-17T12:46:16.806Z,34.50
2022-12-17T12:47:48.847Z,33.37
2022-12-17T12:49:36.013Z,34.07
2022-12-17T12:51:12.278Z,31.20
2022-12-17T12:52:40.759Z,33.00
2022-12-17T12:54:01.526Z,32.23
2022-12-17T12:55:22.473Z,33.23
2022-12-17T12:56:48.226Z,30.80
2022-12-17T12:58:22.736Z,31.83
2022-12-17T12:59:47.470Z,35.70
2022-12-17T13:01:08.542Z,34.37
2022-12-17T13:03:52.197Z,35.97
2022-12-17T13:05:13.198Z,36.90
2022-12-17T13:06:46.201Z,35.67
2022-12-17T13:07:48.739Z,35.23
2022-12-17T13:08:51.221Z,33.40
2022-12-17T13:09:57.527Z,31.20
2022-12-17T13:11:11.563Z,32.13
2022-12-17T13:12:47.459Z,29.73
2022-12-17T13:13:56.252Z,32.97
2022-12-17T13:15:07.534Z,30.53
2022-12-17T13:16:50.542Z,31.53
2022-12-17T13:18:15.226Z,28.27
2022-12-17T13:19:38.358Z,29.97
2022-12-17T13:20:41.393Z,23.83
2022-12-17T13:21:44.032Z,29.73
2022-12-17T13:23:08.438Z,30.77
2022-12-17T13:24:26.770Z,26.30
2022-12-17T13:25:29.113Z,27.57
2022-12-17T13:26:44.148Z,31.43
2022-12-17T13:27:47.247Z,27.47
2022-12-17T13:28:52.357Z,28.50
2022-12-17T13:30:11.238Z,28.07
2022-12-17T13:31:19.739Z,28.17
2022-12-17T13:32:38.649Z,29.03
2022-12-17T13:34:02.230Z,26.70
2022-12-17T13:35:39.917Z,26.30
2022-12-17T13:36:51.958Z,25.33
2022-12-17T13:38:27.135Z,24.97
2022-12-17T13:39:45.150Z,26.73
2022-12-17T13:40:59.587Z,26.97
2022-12-17T13:42:02.556Z,23.93
2022-12-17T13:43:04.876Z,24.90
2022-12-17T13:44:25.523Z,24.90
2022-12-17T13:45:36.579Z,25.30
2022-12-17T13:46:47.352Z,24.20
2022-12-17T13:47:58.127Z,23.60
2022-12-17T13:49:03.554Z,25.90
2022-12-17T13:50:35.897Z,26.53
2022-12-17T13:51:38.805Z,27.60
2022-12-17T13:52:41.051Z,26.20
2022-12-17T13:53:53.051Z,28.33
2022-12-17T13:55:09.524Z,24.87
2022-12-17T13:56:13.106Z,23.93
2022-12-17T13:57:24.793Z,24.33
2022-12-17T13:58:30.337Z,24.00
2022-12-17T13:59:32.701Z,23.33
2022-12-17T14:00:35.070Z,23.17
2022-12-17T14:01:49.193Z,23.57
2022-12-17T14:02:52.960Z,22.97
2022-12-17T14:04:07.228Z,22.13
2022-12-17T14:05:25.023Z,21.00
2022-12-17T14:06:33.161Z,22.73
2022-12-17T14:07:39.285Z,22.23
2022-12-17T14:08:42.500Z,21.97
2022-12-17T14:09:44.955Z,21.67
2022-12-17T14:11:13.610Z,23.43
2022-12-17T14:12:23.790Z,22.23
2022-12-17T14:13:26.062Z,21.53
2022-12-17T14:14:39.379Z,22.47
2022-12-17T14:15:51.431Z,22.03
2022-12-17T14:16:55.212Z,22.40
2022-12-17T14:17:59.342Z,23.10
2022-12-17T14:19:01.726Z,21.77
2022-12-17T14:20:13.115Z,24.13
2022-12-17T14:21:15.650Z,25.03
2022-12-17T14:22:31.734Z,26.13
2022-12-17T14:23:34.286Z,26.40
2022-12-17T14:24:36.640Z,27.57
2022-12-17T14:25:41.104Z,30.33
2022-12-17T14:27:00.091Z,26.93
2022-12-17T14:28:08.623Z,27.40
2022-12-17T14:29:14.513Z,29.10
2022-12-17T14:30:36.121Z,27.67
2022-12-17T14:31:38.446Z,27.70
2022-12-17T14:32:43.972Z,26.07
2022-12-17T14:33:47.040Z,27.40
2022-12-17T14:34:49.281Z,27.13
2022-12-17T14:35:52.991Z,28.83
2022-12-17T14:37:00.848Z,26.43
2022-12-17T14:38:04.990Z,27.20
2022-12-17T14:39:31.162Z,25.93
2022-12-17T14:40:33.463Z,25.63
2022-12-17T14:41:56.838Z,23.90
2022-12-17T14:43:03.186Z,24.80
2022-12-17T14:44:06.277Z,25.20
2022-12-17T14:45:28.184Z,26.57
2022-12-17T14:46:34.944Z,25.23
2022-12-17T14:47:37.918Z,25.50
2022-12-17T14:49:02.029Z,22.07
2022-12-17T14:50:34.800Z,23.23
2022-12-17T14:51:40.539Z,27.03
2022-12-17T14:52:45.662Z,25.97
2022-12-17T14:53:51.016Z,26.03
2022-12-17T14:54:53.253Z,24.13
2022-12-17T14:55:59.987Z,23.23
2022-12-17T14:57:05.728Z,26.63
2022-12-17T14:58:14.939Z,23.93
2022-12-17T14:59:38.972Z,24.13
2022-12-17T15:00:46.381Z,24.83
2022-12-17T15:01:54.179Z,24.87
2022-12-17T15:02:58.348Z,26.23
2022-12-17T15:04:03.057Z,26.40
2022-12-17T15:05:05.777Z,25.70
2022-12-17T15:06:13.276Z,25.77
2022-12-17T15:07:21.979Z,23.83
2022-12-17T15:08:25.088Z,23.60
2022-12-17T15:09:29.351Z,23.90
2022-12-17T15:10:31.801Z,23.60
2022-12-17T15:11:34.015Z,27.00
2022-12-17T15:12:36.246Z,25.93
2022-12-17T15:13:38.584Z,25.23
2022-12-17T15:14:40.810Z,24.63
2022-12-17T15:15:43.127Z,24.10
2022-12-17T15:16:46.360Z,25.97
2022-12-17T15:17:48.918Z,23.27
2022-12-17T15:18:51.280Z,22.63
2022-12-17T15:19:56.113Z,21.83
2022-12-17T15:21:02.983Z,24.50
2022-12-17T15:22:07.787Z,24.17
2022-12-17T15:23:16.762Z,23.87
2022-12-17T15:24:21.113Z,21.97
2022-12-17T15:25:23.351Z,22.40
2022-12-17T15:26:29.610Z,21.93
2022-12-17T15:27:32.006Z,23.00
2022-12-17T15:28:34.522Z,22.97
2022-12-17T15:29:37.339Z,24.50
2022-12-17T15:30:40.308Z,22.73
2022-12-17T15:31:42.704Z,25.03
2022-12-17T15:32:45.927Z,22.70
2022-12-17T15:33:48.169Z,22.70
2022-12-17T15:34:53.337Z,20.23
2022-12-17T15:35:55.602Z,20.73
2022-12-17T15:36:57.811Z,20.83
2022-12-17T15:38:00.116Z,22.43
2022-12-17T15:39:02.410Z,25.13
2022-12-17T15:40:13.890Z,23.13
2022-12-17T15:41:34.743Z,20.80
2022-12-17T15:42:55.614Z,19.47
2022-12-17T15:44:00.369Z,23.87
2022-12-17T15:45:02.635Z,21.00
2022-12-17T15:46:09.625Z,20.47
2022-12-17T15:47:11.880Z,20.53
2022-12-17T15:48:17.243Z,19.53
2022-12-17T15:49:19.502Z,20.17
2022-12-17T15:50:22.018Z,20.40
2022-12-17T15:51:29.811Z,20.37
2022-12-17T15:52:33.033Z,21.13
2022-12-17T15:53:35.895Z,20.00
2022-12-17T15:54:38.295Z,20.70
2022-12-17T15:55:40.791Z,20.70
2022-12-17T15:56:53.650Z,19.23
2022-12-17T15:57:55.974Z,20.67
2022-12-17T15:58:59.240Z,21.20
2022-12-17T16:00:01.556Z,21.17
2022-12-17T16:01:06.224Z,21.27
2022-12-17T16:02:10.747Z,23.30
2022-12-17T16:03:13.104Z,20.33
2022-12-17T16:04:21.551Z,20.13
2022-12-17T16:05:26.961Z,21.30
2022-12-17T16:06:29.192Z,22.10
2022-12-17T16:07:33.785Z,20.80
2022-12-17T16:08:39.179Z,20.77
2022-12-17T16:09:41.659Z,20.20
2022-12-17T16:10:43.998Z,20.23
2022-12-17T16:11:46.280Z,22.13
2022-12-17T16:12:48.549Z,19.83
2022-12-17T16:13:55.201Z,22.20
2022-12-17T16:15:02.061Z,23.13
2022-12-17T16:16:08.033Z,20.73
2022-12-17T16:17:11.244Z,20.67
2022-12-17T16:18:13.517Z,19.03
2022-12-17T16:19:15.781Z,20.53
2022-12-17T16:20:17.991Z,20.60
2022-12-17T16:21:20.184Z,18.43
2022-12-17T16:22:22.393Z,19.17
2022-12-17T16:23:24.576Z,17.83
2022-12-17T16:24:26.786Z,17.73
2022-12-17T16:25:29.081Z,15.30
2022-12-17T16:26:31.767Z,16.37
2022-12-17T16:27:34.022Z,17.93
2022-12-17T16:28:43.304Z,15.37
2022-12-17T16:29:48.243Z,17.43
2022-12-17T16:31:11.731Z,16.27
2022-12-17T16:32:15.273Z,15.77
2022-12-17T16:33:17.465Z,14.77
2022-12-17T16:34:22.704Z,16.37
2022-12-17T16:35:25.219Z,16.17
2022-12-17T16:36:28.447Z,15.33
2022-12-17T16:37:30.783Z,17.80
2022-12-17T16:38:33.596Z,14.93
2022-12-17T16:39:35.870Z,15.23
2022-12-17T16:40:38.123Z,14.83
2022-12-17T16:41:41.243Z,16.47
2022-12-17T16:42:46.594Z,16.50
2022-12-17T16:43:49.169Z,16.83
2022-12-17T16:44:51.400Z,15.63
2022-12-17T16:45:54.739Z,18.13
2022-12-17T16:46:57.137Z,16.67
2022-12-17T16:48:02.115Z,16.20
2022-12-17T16:49:30.710Z,16.80
2022-12-17T16:50:32.955Z,17.00
2022-12-17T16:51:35.238Z,17.77
2022-12-17T16:52:37.423Z,16.17
2022-12-17T16:53:39.654Z,17.70
2022-12-17T16:54:41.909Z,17.83
2022-12-17T16:55:46.227Z,17.17
2022-12-17T16:56:49.221Z,16.27
2022-12-17T16:57:51.416Z,16.17
2022-12-17T16:58:54.765Z,18.60
2022-12-17T16:59:57.065Z,16.87
2022-12-17T17:01:02.040Z,15.67
2022-12-17T17:02:05.913Z,20.97
2022-12-17T17:03:11.104Z,17.83
2022-12-17T17:04:15.298Z,17.97
2022-12-17T17:05:17.569Z,17.07
2022-12-17T17:06:20.711Z,17.23
2022-12-17T17:07:25.336Z,17.43
2022-12-17T17:08:27.578Z,16.90
2022-12-17T17:09:29.874Z,17.00
2022-12-17T17:10:36.939Z,17.57
2022-12-17T17:11:43.933Z,15.97
2022-12-17T17:12:52.061Z,16.87
2022-12-17T17:13:55.250Z,17.17
2022-12-17T17:14:57.429Z,16.77
2022-12-17T17:15:59.947Z,15.63
2022-12-17T17:17:02.188Z,15.77